createdAt,value
2022-08-31T00:00:11.023Z,99.90
2022-08-31T00:02:56.557Z,99.90
2022-08-31T00:05:24.982Z,99.90
2022-08-31T00:07:53.350Z,99.90
2022-08-31T00:10:32.709Z,99.90
2022-08-31T00:13:07.042Z,99.90
2022-08-31T00:15:35.870Z,99.90
2022-08-31T00:18:04.193Z,99.90
2022-08-31T00:20:33.521Z,99.90
2022-08-31T00:23:03.603Z,99.90
2022-08-31T00:25:31.562Z,99.90
2022-08-31T00:27:59.293Z,99.90
2022-08-31T00:30:28.587Z,99.90
2022-08-31T00:32:58.298Z,99.90
2022-08-31T00:35:27.154Z,99.90
2022-08-31T00:37:55.196Z,99.90
2022-08-31T00:40:23.938Z,99.90
2022-08-31T00:42:52.549Z,99.90
2022-08-31T00:45:20.955Z,99.90
2022-08-31T00:47:50.468Z,99.90
2022-08-31T00:50:19.719Z,99.90
2022-08-31T00:52:51.933Z,99.90
2022-08-31T00:55:24.228Z,99.90
2022-08-31T00:57:55.007Z,99.90
2022-08-31T01:00:27.137Z,99.90
2022-08-31T01:02:57.595Z,99.90
2022-08-31T01:05:26.052Z,99.90
2022-08-31T01:07:54.418Z,99.90
2022-08-31T01:10:25.846Z,99.90
2022-08-31T01:12:56.587Z,99.90
2022-08-31T01:15:25.878Z,99.90
2022-08-31T01:17:56.742Z,99.90
2022-08-31T01:20:30.012Z,99.90
2022-08-31T01:23:09.184Z,99.90
2022-08-31T01:25:38.560Z,99.90
2022-08-31T01:28:08.342Z,99.90
2022-08-31T01:30:37.518Z,99.90
2022-08-31T01:33:05.633Z,99.90
2022-08-31T01:35:34.765Z,99.90
2022-08-31T01:38:02.912Z,99.90
2022-08-31T01:40:35.732Z,99.90
2022-08-31T01:43:04.097Z,99.90
2022-08-31T01:45:31.871Z,99.90
2022-08-31T01:48:00.188Z,99.90
2022-08-31T01:50:28.390Z,99.90
2022-08-31T01:52:56.163Z,99.90
2022-08-31T01:55:23.957Z,99.90
2022-08-31T01:57:53.061Z,99.90
2022-08-31T02:00:21.184Z,99.90
2022-08-31T02:02:49.018Z,99.90
2022-08-31T02:05:16.854Z,99.90
2022-08-31T02:07:44.627Z,99.90
2022-08-31T02:10:12.725Z,99.90
2022-08-31T02:12:40.512Z,99.90
2022-08-31T02:15:10.403Z,99.90
2022-08-31T02:17:38.190Z,99.90
2022-08-31T02:20:08.060Z,99.90
2022-08-31T02:22:36.139Z,99.90
2022-08-31T02:25:04.140Z,99.90
2022-08-31T02:27:32.175Z,99.90
2022-08-31T02:29:59.930Z,99.90
2022-08-31T02:32:28.991Z,99.90
2022-08-31T02:34:56.744Z,99.90
2022-08-31T02:37:24.494Z,99.90
2022-08-31T02:39:52.393Z,99.90
2022-08-31T02:42:20.155Z,99.90
2022-08-31T02:44:47.911Z,99.90
2022-08-31T02:47:15.713Z,99.90
2022-08-31T02:49:44.812Z,99.90
2022-08-31T02:52:12.566Z,99.90
2022-08-31T02:54:40.294Z,99.90
2022-08-31T02:57:08.139Z,99.90
2022-08-31T02:59:35.990Z,99.90
2022-08-31T03:02:03.895Z,99.90
2022-08-31T03:04:31.767Z,99.90
2022-08-31T03:07:00.850Z,99.90
2022-08-31T03:09:28.709Z,99.90
2022-08-31T03:11:56.480Z,99.90
2022-08-31T03:14:24.227Z,99.90
2022-08-31T03:16:52.064Z,99.90
2022-08-31T03:19:20.735Z,99.90
2022-08-31T03:21:48.564Z,99.90
2022-08-31T03:24:27.528Z,99.90
2022-08-31T03:26:55.463Z,99.90
2022-08-31T03:29:23.200Z,99.90
2022-08-31T03:31:50.938Z,99.90
2022-08-31T03:34:18.759Z,99.90
2022-08-31T03:36:46.516Z,99.90
2022-08-31T03:39:14.311Z,99.90
2022-08-31T03:41:43.405Z,99.90
2022-08-31T03:44:11.151Z,99.90
2022-08-31T03:46:39.673Z,99.90
2022-08-31T03:49:07.659Z,99.90
2022-08-31T03:51:35.459Z,99.90
2022-08-31T03:54:03.209Z,99.90
2022-08-31T03:56:30.952Z,99.90
2022-08-31T03:59:00.032Z,99.90
2022-08-31T04:01:27.841Z,99.90
2022-08-31T04:03:55.615Z,99.90
2022-08-31T04:06:23.571Z,99.90
2022-08-31T04:08:51.381Z,99.90
2022-08-31T04:11:44.316Z,99.90
2022-08-31T04:14:15.386Z,99.90
2022-08-31T04:16:43.967Z,99.90
2022-08-31T04:19:15.909Z,99.90
2022-08-31T04:21:44.997Z,99.90
2022-08-31T04:24:12.982Z,99.90
2022-08-31T04:26:41.555Z,99.90
2022-08-31T04:29:13.018Z,99.90
2022-08-31T04:31:42.612Z,99.90
2022-08-31T04:34:10.462Z,99.90
2022-08-31T04:36:38.560Z,99.90
2022-08-31T04:39:07.977Z,99.90
2022-08-31T04:41:39.631Z,99.90
2022-08-31T04:44:07.911Z,99.90
2022-08-31T04:46:38.621Z,99.90
2022-08-31T04:49:09.294Z,99.90
2022-08-31T04:51:39.249Z,99.90
2022-08-31T04:54:09.847Z,99.90
2022-08-31T04:56:41.051Z,99.90
2022-08-31T04:59:10.895Z,99.90
2022-08-31T05:01:43.666Z,99.90
2022-08-31T05:04:15.160Z,99.90
2022-08-31T05:06:44.815Z,99.90
2022-08-31T05:09:14.614Z,99.90
2022-08-31T05:11:42.513Z,99.90
2022-08-31T05:14:11.099Z,99.90
2022-08-31T05:16:40.162Z,99.90
2022-08-31T05:19:08.330Z,99.90
2022-08-31T05:21:39.342Z,99.90
2022-08-31T05:24:09.729Z,99.90
2022-08-31T05:26:42.282Z,99.90
2022-08-31T05:29:14.145Z,99.90
2022-08-31T05:31:43.433Z,99.90
2022-08-31T05:34:12.784Z,99.90
2022-08-31T05:36:42.948Z,99.90
2022-08-31T05:39:11.880Z,99.90
2022-08-31T05:41:40.625Z,99.90
2022-08-31T05:44:08.690Z,99.90
2022-08-31T05:46:37.015Z,99.90
2022-08-31T05:49:06.346Z,99.90
2022-08-31T05:51:38.410Z,99.90
2022-08-31T05:54:10.667Z,99.90
2022-08-31T05:56:41.027Z,99.90
2022-08-31T05:59:10.800Z,99.90
2022-08-31T06:01:40.414Z,99.90
2022-08-31T06:04:10.386Z,99.90
2022-08-31T06:06:38.839Z,99.90
2022-08-31T06:09:09.098Z,99.90
2022-08-31T06:11:42.131Z,99.90
2022-08-31T06:14:12.076Z,99.90
2022-08-31T06:16:40.654Z,99.90
2022-08-31T06:19:08.498Z,99.90
2022-08-31T06:21:39.542Z,99.90
2022-08-31T06:24:19.721Z,99.90
2022-08-31T06:26:56.757Z,99.90
2022-08-31T06:29:26.034Z,99.90
2022-08-31T06:31:53.971Z,99.90
2022-08-31T06:34:23.399Z,99.90
2022-08-31T06:36:51.295Z,99.90
2022-08-31T06:39:20.457Z,99.90
2022-08-31T06:41:48.867Z,99.90
2022-08-31T06:44:16.911Z,99.90
2022-08-31T06:46:47.531Z,99.90
2022-08-31T06:49:16.699Z,99.90
2022-08-31T06:51:45.030Z,99.90
2022-08-31T06:54:29.571Z,99.90
2022-08-31T06:57:02.632Z,99.90
2022-08-31T06:59:30.462Z,99.90
2022-08-31T07:01:59.159Z,99.90
2022-08-31T07:04:27.522Z,99.90
2022-08-31T07:06:55.361Z,99.90
2022-08-31T07:09:23.704Z,99.90
2022-08-31T07:11:53.497Z,99.90
2022-08-31T07:14:25.027Z,99.90
2022-08-31T07:16:54.729Z,99.90
2022-08-31T07:19:23.752Z,99.90
2022-08-31T07:21:53.741Z,99.90
2022-08-31T07:24:25.688Z,99.90
2022-08-31T07:26:57.945Z,99.90
2022-08-31T07:29:30.078Z,99.90
2022-08-31T07:31:59.314Z,99.90
2022-08-31T07:34:29.300Z,99.90
2022-08-31T07:37:16.704Z,99.90
2022-08-31T07:40:07.097Z,99.90
2022-08-31T07:42:38.429Z,99.90
2022-08-31T07:45:12.858Z,99.90
2022-08-31T07:47:47.023Z,99.90
2022-08-31T07:50:15.351Z,99.90
2022-08-31T07:52:47.033Z,99.90
2022-08-31T07:55:16.906Z,99.90
2022-08-31T07:57:45.088Z,99.90
2022-08-31T08:00:18.184Z,99.90
2022-08-31T08:02:52.917Z,99.90
2022-08-31T08:05:26.710Z,99.90
2022-08-31T08:07:58.316Z,99.90
2022-08-31T08:10:27.570Z,99.90
2022-08-31T08:13:04.817Z,99.90
2022-08-31T08:15:37.224Z,99.90
2022-08-31T08:18:06.987Z,99.90
2022-08-31T08:20:38.554Z,99.90
2022-08-31T08:23:11.415Z,99.90
2022-08-31T08:25:43.347Z,99.90
2022-08-31T08:28:36.051Z,99.90
2022-08-31T08:31:07.336Z,99.90
2022-08-31T08:33:37.631Z,99.90
2022-08-31T08:36:08.571Z,99.90
2022-08-31T08:38:39.297Z,99.60
2022-08-31T08:41:12.202Z,99.50
2022-08-31T08:43:43.729Z,99.10
2022-08-31T08:46:33.890Z,98.10
2022-08-31T08:49:10.497Z,98.70
2022-08-31T08:51:40.122Z,98.40
2022-08-31T08:54:12.304Z,97.50
2022-08-31T08:56:49.054Z,97.30
2022-08-31T08:59:19.940Z,97.00
2022-08-31T09:02:01.958Z,97.00
2022-08-31T09:04:59.768Z,96.70
2022-08-31T09:07:44.341Z,96.60
2022-08-31T09:10:20.200Z,96.90
2022-08-31T09:12:58.011Z,96.90
2022-08-31T09:15:40.710Z,97.50
2022-08-31T09:18:26.115Z,97.80
2022-08-31T09:21:13.502Z,97.90
2022-08-31T09:23:49.188Z,97.30
2022-08-31T09:26:18.195Z,96.80
2022-08-31T09:28:48.658Z,96.30
2022-08-31T09:31:34.692Z,96.90
2022-08-31T09:34:05.295Z,96.20
2022-08-31T09:36:37.866Z,95.50
2022-08-31T09:39:16.439Z,96.60
2022-08-31T09:41:45.803Z,95.30
2022-08-31T09:44:25.150Z,94.40
2022-08-31T09:46:56.507Z,95.30
2022-08-31T09:49:28.688Z,94.40
2022-08-31T09:52:18.660Z,94.60
2022-08-31T09:55:13.280Z,94.60
2022-08-31T09:57:54.051Z,94.80
2022-08-31T10:00:35.182Z,95.30
2022-08-31T10:03:13.500Z,94.90
2022-08-31T10:05:44.514Z,94.40
2022-08-31T10:08:34.339Z,94.70
2022-08-31T10:11:10.323Z,94.70
2022-08-31T10:13:41.024Z,94.10
2022-08-31T10:16:17.099Z,94.20
2022-08-31T10:19:00.906Z,94.00
2022-08-31T10:21:40.537Z,94.50
2022-08-31T10:24:20.691Z,94.20
2022-08-31T10:26:53.421Z,93.90
2022-08-31T10:29:36.886Z,93.50
2022-08-31T10:32:13.019Z,92.70
2022-08-31T10:34:59.836Z,92.80
2022-08-31T10:37:37.752Z,93.00
2022-08-31T10:40:09.895Z,92.90
2022-08-31T10:42:42.281Z,92.80
2022-08-31T10:45:18.435Z,92.00
2022-08-31T10:47:49.949Z,92.30
2022-08-31T10:50:26.851Z,92.80
2022-08-31T10:53:05.817Z,91.80
2022-08-31T10:55:39.369Z,92.20
2022-08-31T10:58:16.452Z,92.10
2022-08-31T11:00:52.178Z,90.50
2022-08-31T11:03:38.611Z,91.20
2022-08-31T11:06:15.010Z,91.50
2022-08-31T11:08:52.554Z,90.50
2022-08-31T11:11:30.932Z,90.00
2022-08-31T11:14:18.220Z,88.50
2022-08-31T11:17:03.572Z,88.80
2022-08-31T11:19:50.628Z,88.50
2022-08-31T11:22:37.471Z,87.30
2022-08-31T11:25:58.314Z,87.60
2022-08-31T11:28:34.232Z,86.90
2022-08-31T11:31:05.047Z,84.30
2022-08-31T11:33:33.296Z,82.60
2022-08-31T11:36:07.655Z,83.40
2022-08-31T11:38:52.223Z,83.20
2022-08-31T11:41:41.205Z,80.80
2022-08-31T11:44:10.285Z,81.20
2022-08-31T11:47:06.767Z,82.20
2022-08-31T11:49:38.777Z,82.10
2022-08-31T11:52:14.525Z,83.10
2022-08-31T11:54:59.843Z,83.50
2022-08-31T11:57:37.020Z,83.80
2022-08-31T12:00:20.439Z,83.30
2022-08-31T12:03:04.401Z,83.40
2022-08-31T12:05:56.311Z,82.90
2022-08-31T12:08:28.456Z,82.40
2022-08-31T12:11:03.474Z,84.30
2022-08-31T12:13:45.810Z,82.70
2022-08-31T12:16:37.825Z,82.40
2022-08-31T12:19:49.150Z,81.60
2022-08-31T12:23:31.113Z,82.30
2022-08-31T12:26:26.407Z,82.60
2022-08-31T12:29:17.114Z,82.40
2022-08-31T12:32:06.448Z,83.80
2022-08-31T12:34:41.845Z,82.00
2022-08-31T12:37:34.858Z,79.10
2022-08-31T12:40:16.893Z,78.10
2022-08-31T12:42:54.631Z,77.60
2022-08-31T12:45:44.485Z,78.40
2022-08-31T12:48:24.145Z,77.50
2022-08-31T12:51:00.693Z,77.30
2022-08-31T12:53:55.065Z,77.20
2022-08-31T12:56:32.430Z,76.00
2022-08-31T12:59:20.329Z,76.10
2022-08-31T13:01:51.586Z,77.20
2022-08-31T13:04:21.939Z,76.60
2022-08-31T13:06:49.768Z,74.70
2022-08-31T13:09:28.833Z,75.90
2022-08-31T13:11:58.434Z,74.90
2022-08-31T13:14:28.569Z,73.00
2022-08-31T13:17:06.103Z,72.20
2022-08-31T13:19:36.165Z,73.10
2022-08-31T13:22:06.630Z,72.80
2022-08-31T13:24:36.466Z,71.70
2022-08-31T13:27:06.811Z,71.10
2022-08-31T13:29:41.179Z,70.80
2022-08-31T13:32:10.625Z,69.80
2022-08-31T13:34:42.113Z,69.80
2022-08-31T13:37:20.996Z,69.90
2022-08-31T13:39:48.876Z,70.20
2022-08-31T13:42:33.903Z,68.80
2022-08-31T13:45:04.298Z,68.20
2022-08-31T13:47:45.245Z,65.10
2022-08-31T13:50:25.936Z,65.10
2022-08-31T13:53:22.904Z,67.10
2022-08-31T13:55:47.481Z,64.80
2022-08-31T13:58:28.235Z,63.70
2022-08-31T14:01:21.994Z,63.60
2022-08-31T14:03:58.152Z,62.20
2022-08-31T14:06:29.174Z,62.30
2022-08-31T14:09:03.367Z,59.40
2022-08-31T14:11:33.740Z,60.30
2022-08-31T14:14:08.266Z,59.10
2022-08-31T14:16:38.734Z,57.80
2022-08-31T14:19:10.725Z,59.20
2022-08-31T14:21:43.435Z,60.30
2022-08-31T14:24:12.673Z,60.30
2022-08-31T14:26:42.793Z,58.40
2022-08-31T14:29:13.559Z,58.50
2022-08-31T14:31:46.810Z,57.60
2022-08-31T14:34:22.978Z,57.70
2022-08-31T14:36:54.081Z,59.20
2022-08-31T14:39:24.309Z,58.40
2022-08-31T14:41:54.060Z,57.40
2022-08-31T14:44:25.415Z,56.70
2022-08-31T14:46:53.814Z,57.90
2022-08-31T14:49:23.172Z,57.20
2022-08-31T14:51:51.112Z,57.10
2022-08-31T14:54:19.075Z,55.90
2022-08-31T14:56:50.240Z,56.10
2022-08-31T14:59:20.626Z,56.30
2022-08-31T15:01:50.578Z,57.20
2022-08-31T15:04:20.661Z,57.20
2022-08-31T15:06:54.831Z,56.70
2022-08-31T15:09:22.951Z,56.00
2022-08-31T15:11:51.313Z,56.10
2022-08-31T15:14:19.442Z,56.50
2022-08-31T15:16:50.734Z,56.00
2022-08-31T15:19:18.961Z,56.60
2022-08-31T15:21:52.739Z,56.70
2022-08-31T15:24:28.479Z,57.50
2022-08-31T15:26:59.563Z,56.70
2022-08-31T15:29:30.152Z,56.80
2022-08-31T15:31:59.652Z,56.90
2022-08-31T15:34:30.940Z,57.20
2022-08-31T15:37:02.142Z,57.20
2022-08-31T15:39:34.945Z,57.00
2022-08-31T15:42:09.058Z,56.90
2022-08-31T15:44:37.123Z,56.80
2022-08-31T15:47:23.228Z,55.20
2022-08-31T15:49:51.066Z,55.40
2022-08-31T15:52:20.385Z,55.60
2022-08-31T15:54:50.479Z,56.10
2022-08-31T15:57:21.053Z,55.60
2022-08-31T15:59:50.061Z,55.60
2022-08-31T16:02:20.268Z,55.80
2022-08-31T16:04:51.372Z,55.70
2022-08-31T16:07:22.029Z,55.20
2022-08-31T16:09:51.237Z,55.40
2022-08-31T16:12:20.806Z,55.20
2022-08-31T16:14:51.661Z,55.40
2022-08-31T16:17:20.172Z,55.90
2022-08-31T16:19:48.421Z,56.30
2022-08-31T16:22:17.125Z,55.10
2022-08-31T16:24:49.040Z,54.90
2022-08-31T16:27:19.817Z,56.40
2022-08-31T16:29:50.962Z,56.80
2022-08-31T16:32:19.025Z,57.30
2022-08-31T16:34:47.119Z,58.30
2022-08-31T16:37:15.087Z,58.80
2022-08-31T16:39:47.023Z,59.70
2022-08-31T16:42:15.895Z,59.00
2022-08-31T16:44:47.939Z,58.30
2022-08-31T16:47:17.673Z,57.90
2022-08-31T16:49:44.837Z,58.10
2022-08-31T16:52:15.245Z,58.40
2022-08-31T16:54:46.093Z,59.10
2022-08-31T16:57:16.758Z,59.80
2022-08-31T16:59:46.589Z,59.50
2022-08-31T17:02:16.187Z,60.30
2022-08-31T17:04:53.905Z,60.40
2022-08-31T17:07:23.951Z,60.70
2022-08-31T17:09:55.955Z,60.00
2022-08-31T17:12:26.223Z,59.60
2022-08-31T17:14:56.131Z,60.50
2022-08-31T17:17:25.547Z,60.60
2022-08-31T17:19:54.193Z,61.60
2022-08-31T17:22:31.692Z,60.80
2022-08-31T17:25:03.026Z,61.10
2022-08-31T17:27:35.651Z,61.70
2022-08-31T17:30:07.415Z,62.10
2022-08-31T17:32:44.692Z,61.80
2022-08-31T17:35:17.540Z,62.30
2022-08-31T17:37:45.870Z,63.00
2022-08-31T17:40:14.485Z,63.60
2022-08-31T17:42:42.592Z,64.10
2022-08-31T17:45:13.049Z,64.00
2022-08-31T17:47:41.396Z,63.90
2022-08-31T17:50:10.200Z,64.60
2022-08-31T17:52:38.105Z,65.20
2022-08-31T17:55:07.508Z,65.30
2022-08-31T17:57:35.476Z,65.40
2022-08-31T18:00:05.705Z,65.50
2022-08-31T18:02:35.259Z,66.10
2022-08-31T18:05:09.563Z,66.30
2022-08-31T18:07:40.786Z,66.70
2022-08-31T18:10:10.079Z,67.10
2022-08-31T18:12:41.206Z,66.60
2022-08-31T18:15:10.589Z,66.60
2022-08-31T18:17:40.097Z,66.50
2022-08-31T18:20:09.174Z,65.60
2022-08-31T18:22:37.096Z,66.50
2022-08-31T18:25:05.569Z,66.70
2022-08-31T18:27:33.486Z,66.60
2022-08-31T18:30:01.615Z,66.70
2022-08-31T18:32:32.572Z,66.70
2022-08-31T18:35:01.877Z,68.30
2022-08-31T18:37:32.049Z,67.90
2022-08-31T18:40:17.976Z,67.60
2022-08-31T18:43:03.604Z,67.40
2022-08-31T18:45:31.505Z,67.50
2022-08-31T18:50:51.127Z,67.90
2022-08-31T18:53:29.115Z,68.70
2022-08-31T18:55:59.123Z,69.50
2022-08-31T18:58:27.587Z,69.60
2022-08-31T19:00:57.875Z,70.60
2022-08-31T19:03:27.660Z,71.00
2022-08-31T19:05:57.839Z,72.00
2022-08-31T19:08:26.457Z,72.20
2022-08-31T19:10:56.596Z,72.40
2022-08-31T19:13:26.311Z,73.40
2022-08-31T19:15:57.946Z,74.70
2022-08-31T19:18:29.738Z,75.70
2022-08-31T19:20:59.288Z,75.90
2022-08-31T19:23:28.269Z,76.30
2022-08-31T19:25:56.460Z,77.20
2022-08-31T19:28:24.632Z,76.50
2022-08-31T19:30:52.832Z,76.20
2022-08-31T19:33:25.207Z,75.90
2022-08-31T19:36:03.590Z,75.90
2022-08-31T19:38:33.141Z,76.80
2022-08-31T19:41:01.626Z,76.10
2022-08-31T19:43:53.664Z,76.60
2022-08-31T19:46:21.488Z,76.00
2022-08-31T19:48:50.811Z,76.40
2022-08-31T19:51:23.316Z,76.50
2022-08-31T19:53:52.347Z,76.60
2022-08-31T19:56:23.544Z,76.90
2022-08-31T19:58:56.692Z,77.20
2022-08-31T20:01:34.186Z,77.50
2022-08-31T20:04:04.854Z,77.50
2022-08-31T20:06:34.674Z,77.60
2022-08-31T20:09:02.763Z,77.80
2022-08-31T20:11:32.148Z,78.20
2022-08-31T20:14:01.394Z,78.70
2022-08-31T20:16:34.726Z,79.80
2022-08-31T20:19:04.979Z,80.10
2022-08-31T20:21:35.652Z,80.60
2022-08-31T20:24:06.111Z,81.00
2022-08-31T20:26:38.289Z,81.60
2022-08-31T20:29:18.162Z,82.40
2022-08-31T20:31:48.585Z,82.30
2022-08-31T20:34:19.113Z,82.20
2022-08-31T20:37:00.461Z,83.20
2022-08-31T20:39:30.883Z,82.60
2022-08-31T20:42:00.260Z,83.20
2022-08-31T20:44:30.605Z,84.00
2022-08-31T20:47:17.481Z,84.30
2022-08-31T20:49:48.181Z,84.60
2022-08-31T20:52:18.435Z,85.60
2022-08-31T20:54:46.515Z,85.50
2022-08-31T20:57:14.932Z,86.40
2022-08-31T20:59:43.029Z,86.70
2022-08-31T21:02:12.214Z,87.50
2022-08-31T21:04:45.001Z,89.60
2022-08-31T21:07:15.083Z,90.80
2022-08-31T21:09:49.619Z,91.50
2022-08-31T21:12:18.507Z,91.80
2022-08-31T21:14:46.929Z,91.50
2022-08-31T21:17:15.870Z,91.50
2022-08-31T21:19:45.119Z,91.60
2022-08-31T21:22:14.790Z,91.60
2022-08-31T21:24:44.150Z,91.40
2022-08-31T21:27:13.701Z,90.90
2022-08-31T21:29:43.422Z,90.50
2022-08-31T21:32:11.728Z,91.10
2022-08-31T21:34:39.790Z,91.90
2022-08-31T21:37:11.048Z,91.80
2022-08-31T21:39:39.680Z,92.10
2022-08-31T21:42:08.860Z,92.20
2022-08-31T21:44:37.415Z,92.60
2022-08-31T21:47:05.731Z,92.90
2022-08-31T21:49:34.988Z,92.80
2022-08-31T21:52:03.336Z,93.10
2022-08-31T21:54:31.224Z,93.20
2022-08-31T21:57:02.231Z,92.80
2022-08-31T21:59:34.932Z,92.50
2022-08-31T22:02:06.642Z,92.60
2022-08-31T22:04:36.093Z,92.90
2022-08-31T22:07:07.451Z,93.00
2022-08-31T22:09:36.477Z,93.10
2022-08-31T22:12:06.680Z,93.00
2022-08-31T22:14:37.757Z,92.90
2022-08-31T22:17:07.710Z,93.20
2022-08-31T22:19:38.878Z,93.90
2022-08-31T22:22:12.046Z,94.50
2022-08-31T22:24:40.750Z,94.80
2022-08-31T22:27:11.333Z,94.20
2022-08-31T22:29:41.356Z,94.20
2022-08-31T22:32:12.115Z,94.20
2022-08-31T22:34:41.026Z,94.20
2022-08-31T22:37:09.505Z,93.70
2022-08-31T22:39:37.589Z,93.70
2022-08-31T22:42:05.890Z,93.60
2022-08-31T22:44:36.400Z,93.50
2022-08-31T22:47:05.871Z,93.80
2022-08-31T22:49:33.959Z,94.00
2022-08-31T22:52:01.717Z,94.40
2022-08-31T22:54:29.468Z,94.20
2022-08-31T22:56:57.261Z,93.90
2022-08-31T22:59:27.630Z,93.90
2022-08-31T23:01:59.103Z,93.70
2022-08-31T23:04:33.299Z,93.80
2022-08-31T23:07:03.504Z,93.80
2022-08-31T23:09:33.692Z,94.00
2022-08-31T23:12:04.573Z,94.10
2022-08-31T23:14:33.439Z,93.70
2022-08-31T23:17:05.000Z,93.40
2022-08-31T23:19:37.319Z,93.30
2022-08-31T23:22:09.139Z,93.70
2022-08-31T23:24:39.706Z,93.70
2022-08-31T23:27:10.293Z,93.80
2022-08-31T23:29:40.918Z,93.90
2022-08-31T23:32:11.951Z,93.60
2022-08-31T23:34:41.940Z,93.80
2022-08-31T23:37:11.063Z,94.20
2022-08-31T23:39:43.371Z,94.50
2022-08-31T23:42:12.234Z,94.90
2022-08-31T23:44:43.378Z,95.40
2022-08-31T23:47:13.481Z,95.50
2022-08-31T23:49:43.754Z,96.40
2022-08-31T23:52:15.573Z,96.40
2022-08-31T23:54:43.321Z,96.40
2022-08-31T23:57:19.250Z,96.50
